| time (UTC) | temp F | wind direction | speed knots | gust knots | rain 1hr in | rain 24hr in | rain mn in | humidity % | barometer mb |
| 20260507201541 | 55 | 206 | 1.7 | 0.0 | 0.00 | 1.17 | 0.00 | 95 | 1001.6 |
| 20260507200031 | 56 | 271 | 1.7 | 0.0 | 0.00 | 1.17 | 0.00 | 95 | 1001.2 |
| 20260507195529 | 55 | 183 | 0.9 | 0.0 | 0.00 | 1.17 | 0.00 | 95 | 1001.2 |
| 20260507195026 | 55 | 173 | 2.6 | 0.0 | 0.00 | 1.17 | 0.00 | 94 | 1001.2 |
| 20260507194524 | 55 | 205 | 3.5 | 0.0 | 0.00 | 1.17 | 0.00 | 94 | 1001.2 |
| 20260507193521 | 56 | 68 | 0.9 | 0.0 | 0.00 | 1.17 | 0.00 | 95 | 1001.2 |
| 20260507193019 | 56 | 356 | 0.9 | 0.0 | 0.01 | 1.17 | 0.00 | 95 | 1001.2 |
| 20260507192015 | 56 | 241 | 0.9 | 0.0 | 0.02 | 1.17 | 0.00 | 95 | 1001.2 |
| 20260507191514 | 57 | 86 | 0.9 | 0.0 | 0.02 | 1.17 | 0.00 | 95 | 1001.2 |
| 20260507191011 | 55 | 281 | 0.0 | 0.0 | 0.02 | 1.17 | 0.00 | 96 | 1001.2 |
| 20260507190510 | 54 | 156 | 2.6 | 0.0 | 0.03 | 1.17 | 0.00 | 96 | 1001.6 |
| 20260507185508 | 54 | 217 | 2.6 | 0.0 | 0.04 | 1.17 | 0.00 | 97 | 1000.9 |
| 20260507185006 | 54 | 213 | 3.5 | 0.0 | 0.05 | 1.17 | 0.00 | 97 | 1000.5 |
| 20260507184505 | 54 | 307 | 1.7 | 0.0 | 0.06 | 1.17 | 0.00 | 98 | 1000.2 |
| 20260507184002 | 54 | 346 | 0.9 | 0.0 | 0.06 | 1.17 | 0.00 | 99 | 999.2 |
| 20260507183501 | 53 | 81 | 1.7 | 0.0 | 0.07 | 1.17 | 0.00 | 99 | 999.9 |
| 20260507182558 | 53 | 323 | 2.6 | 0.0 | 0.05 | 1.15 | 0.00 | 99 | 1001.2 |
| 20260507182057 | 53 | 30 | 1.7 | 0.0 | 0.05 | 1.15 | 0.00 | 99 | 1001.2 |
| 20260507181555 | 53 | 41 | 2.6 | 0.0 | 0.06 | 1.15 | 0.00 | 98 | 1001.9 |
| 20260507180552 | 53 | 113 | 1.7 | 0.0 | 0.08 | 1.15 | 0.00 | 98 | 1001.9 |
| 20260507175550 | 53 | 39 | 2.6 | 0.0 | 0.10 | 1.13 | 0.00 | 98 | 1001.9 |
| 20260507175048 | 53 | 352 | 1.7 | 0.0 | 0.11 | 1.13 | 0.00 | 98 | 1001.9 |
| 20260507174547 | 53 | 317 | 1.7 | 0.0 | 0.11 | 1.11 | 0.00 | 98 | 1001.9 |
| 20260507174045 | 53 | 356 | 1.7 | 0.0 | 0.14 | 1.11 | 0.00 | 98 | 1002.2 |
| 20260507173544 | 53 | 2 | 2.6 | 0.0 | 0.16 | 1.10 | 0.00 | 98 | 1002.6 |
| 20260507173041 | 53 | 23 | 1.7 | 0.0 | 0.19 | 1.10 | 0.00 | 98 | 1002.2 |
| 20260507172540 | 53 | 334 | 0.0 | 0.0 | 0.21 | 1.10 | 0.00 | 98 | 1002.2 |
| 20260507172035 | 53 | 25 | 1.7 | 0.0 | 0.23 | 1.10 | 0.00 | 98 | 1002.2 |
| 20260507171031 | 53 | 10 | 2.6 | 0.0 | 0.29 | 1.09 | 0.00 | 98 | 1002.9 |
| 20260507170528 | 53 | 323 | 2.6 | 0.0 | 0.32 | 1.07 | 0.00 | 98 | 1003.6 |
| 20260507165524 | 53 | 129 | 2.6 | 0.0 | 0.36 | 1.03 | 0.00 | 98 | 1003.6 |
| 20260507165022 | 53 | 48 | 2.6 | 0.0 | 0.38 | 1.02 | 0.00 | 98 | 1003.3 |
| 20260507164520 | 54 | 117 | 0.9 | 0.0 | 0.41 | 1.00 | 0.00 | 98 | 1003.3 |
| 20260507164017 | 54 | 83 | 1.7 | 0.0 | 0.45 | 0.97 | 0.00 | 98 | 1003.9 |
| 20260507163514 | 54 | 263 | 0.9 | 0.0 | 0.45 | 0.94 | 0.00 | 98 | 1003.6 |
| 20260507162008 | 54 | 274 | 2.6 | 0.0 | 0.50 | 0.87 | 0.00 | 98 | 1003.9 |
| 20260507161506 | 54 | 113 | 2.6 | 0.0 | 0.46 | 0.83 | 0.00 | 98 | 1004.3 |
| 20260507160501 | 55 | 215 | 3.5 | 0.0 | 0.40 | 0.75 | 0.00 | 98 | 1003.9 |
| 20260507155559 | 55 | 188 | 2.6 | 0.0 | 0.32 | 0.67 | 0.00 | 98 | 1003.9 |
| 20260507154554 | 55 | 157 | 0.9 | 0.0 | 0.26 | 0.61 | 0.00 | 98 | 1004.3 |
| 20260507154052 | 55 | 73 | 1.7 | 0.0 | 0.18 | 0.53 | 0.00 | 98 | 1004.3 |
| 20260507153048 | 55 | 167 | 3.5 | 0.0 | 0.11 | 0.46 | 0.00 | 97 | 1004.3 |
| 20260507152545 | 56 | 199 | 5.2 | 0.0 | 0.04 | 0.39 | 0.00 | 96 | 1003.9 |
| 20260507151543 | 56 | 166 | 4.3 | 0.0 | 0.02 | 0.37 | 0.00 | 96 | 1003.9 |
| 20260507151042 | 56 | 187 | 2.6 | 0.0 | 0.02 | 0.37 | 0.00 | 95 | 1003.9 |
| 20260507150540 | 56 | 339 | 6.1 | 0.0 | 0.00 | 0.35 | 0.00 | 94 | 1003.9 |
| 20260507150038 | 56 | 53 | 4.3 | 0.0 | 0.00 | 0.35 | 0.00 | 94 | 1003.9 |
| 20260507145533 | 56 | 203 | 3.5 | 0.0 | 0.00 | 0.35 | 0.00 | 93 | 1003.9 |
| 20260507145032 | 56 | 63 | 4.3 | 0.0 | 0.00 | 0.35 | 0.00 | 92 | 1003.9 |
| 20260507144530 | 56 | 32 | 1.7 | 0.0 | 0.00 | 0.35 | 0.00 | 91 | 1003.9 |
| 20260507144029 | 57 | 10 | 4.3 | 0.0 | 0.00 | 0.35 | 0.00 | 91 | 1004.3 |
| 20260507143528 | 57 | 61 | 8.7 | 0.0 | 0.01 | 0.35 | 0.00 | 91 | 1004.3 |
| 20260507142524 | 57 | 277 | 4.3 | 0.0 | 0.01 | 0.35 | 0.00 | 90 | 1004.3 |
| 20260507142023 | 57 | 152 | 6.1 | 0.0 | 0.01 | 0.35 | 0.00 | 90 | 1004.3 |
| 20260507141021 | 57 | 91 | 7.0 | 0.0 | 0.01 | 0.35 | 0.00 | 90 | 1004.3 |
| 20260507140519 | 57 | 4 | 8.7 | 0.0 | 0.01 | 0.35 | 0.00 | 89 | 1004.3 |
| 20260507140017 | 58 | 203 | 8.7 | 0.0 | 0.01 | 0.35 | 0.00 | 89 | 1004.3 |
| 20260507135515 | 58 | 32 | 7.0 | 0.0 | 0.01 | 0.35 | 0.00 | 89 | 1004.6 |
| 20260507135014 | 58 | 121 | 2.6 | 0.0 | 0.01 | 0.35 | 0.00 | 90 | 1004.3 |
| 20260507134010 | 57 | 46 | 5.2 | 0.0 | 0.01 | 0.35 | 0.00 | 90 | 1004.6 |
| 20260507133509 | 57 | 232 | 6.1 | 0.0 | 0.00 | 0.34 | 0.00 | 89 | 1005.0 |
| 20260507133008 | 57 | 153 | 17.4 | 0.0 | 0.00 | 0.34 | 0.00 | 90 | 1005.0 |
| 20260507132506 | 57 | 53 | 5.2 | 0.0 | 0.00 | 0.34 | 0.00 | 91 | 1005.0 |
| 20260507132005 | 57 | 201 | 7.0 | 0.0 | 0.00 | 0.34 | 0.00 | 91 | 1005.0 |
| 20260507131503 | 57 | 220 | 5.2 | 0.0 | 0.00 | 0.34 | 0.00 | 91 | 1005.0 |
| 20260507131002 | 56 | 38 | 5.2 | 0.0 | 0.01 | 0.34 | 0.00 | 92 | 1005.0 |
| 20260507130500 | 57 | 186 | 9.6 | 0.0 | 0.01 | 0.34 | 0.00 | 92 | 1005.0 |
| 20260507125559 | 57 | 197 | 9.6 | 0.0 | 0.01 | 0.34 | 0.00 | 91 | 1005.3 |
| 20260507125058 | 57 | 131 | 11.3 | 0.0 | 0.01 | 0.34 | 0.00 | 92 | 1005.3 |
| 20260507124556 | 56 | 230 | 6.1 | 0.0 | 0.01 | 0.34 | 0.00 | 91 | 1005.3 |
| 20260507124054 | 56 | 176 | 5.2 | 0.0 | 0.01 | 0.34 | 0.00 | 92 | 1005.3 |
| 20260507123051 | 55 | 200 | 10.4 | 0.0 | 0.01 | 0.34 | 0.00 | 92 | 1005.7 |
| 20260507122550 | 55 | 127 | 5.2 | 0.0 | 0.01 | 0.34 | 0.00 | 93 | 1005.7 |
| 20260507122048 | 55 | 150 | 8.7 | 0.0 | 0.01 | 0.34 | 0.00 | 93 | 1005.7 |
| 20260507121545 | 55 | 139 | 2.6 | 0.0 | 0.01 | 0.34 | 0.00 | 93 | 1006.0 |
| 20260507120542 | 55 | 350 | 1.7 | 0.0 | 0.04 | 0.33 | 0.00 | 93 | 1006.0 |
| 20260507120040 | 55 | 47 | 2.6 | 0.0 | 0.04 | 0.33 | 0.00 | 93 | 1006.3 |
| 20260507115037 | 55 | 176 | 4.3 | 0.0 | 0.04 | 0.33 | 0.00 | 92 | 1006.3 |
| 20260507114532 | 56 | 263 | 6.1 | 0.0 | 0.04 | 0.33 | 0.00 | 91 | 1006.7 |
| 20260507113527 | 56 | 67 | 5.2 | 0.0 | 0.04 | 0.33 | 0.00 | 91 | 1006.7 |
| 20260507113026 | 55 | 356 | 1.7 | 0.0 | 0.04 | 0.33 | 0.00 | 91 | 1006.7 |
| 20260507112525 | 55 | 248 | 8.7 | 0.0 | 0.04 | 0.33 | 0.00 | 91 | 1006.3 |
| 20260507111523 | 55 | 177 | 5.2 | 0.0 | 0.06 | 0.33 | 0.00 | 91 | 1006.3 |
| 20260507111022 | 55 | 155 | 7.8 | 0.0 | 0.06 | 0.33 | 0.00 | 90 | 1006.7 |
| 20260507110520 | 55 | 202 | 9.6 | 0.0 | 0.02 | 0.29 | 0.00 | 90 | 1007.0 |
| 20260507110019 | 55 | 38 | 7.8 | 0.0 | 0.02 | 0.29 | 0.00 | 91 | 1006.7 |
| 20260507105016 | 55 | 339 | 2.6 | 0.0 | 0.02 | 0.29 | 0.00 | 90 | 1007.0 |
| 20260507103510 | 54 | 189 | 7.0 | 0.0 | 0.02 | 0.29 | 0.00 | 88 | 1007.4 |
| 20260507103009 | 54 | 254 | 3.5 | 0.0 | 0.02 | 0.29 | 0.00 | 89 | 1007.4 |
| 20260507102507 | 54 | 175 | 8.7 | 0.0 | 0.00 | 0.27 | 0.00 | 88 | 1007.4 |
| 20260507102007 | 54 | 34 | 2.6 | 0.0 | 0.00 | 0.27 | 0.00 | 88 | 1007.4 |
| 20260507101504 | 54 | 202 | 5.2 | 0.0 | 0.00 | 0.27 | 0.00 | 88 | 1007.7 |
| 20260507101004 | 54 | 224 | 4.3 | 0.0 | 0.02 | 0.27 | 0.00 | 88 | 1007.7 |
| 20260507100502 | 53 | 233 | 6.1 | 0.0 | 0.04 | 0.27 | 0.00 | 88 | 1007.7 |
| 20260507095559 | 53 | 180 | 4.3 | 0.0 | 0.08 | 0.27 | 0.00 | 88 | 1007.4 |
| 20260507095058 | 53 | 171 | 4.3 | 0.0 | 0.09 | 0.27 | 0.00 | 88 | 1007.4 |
| 20260507094555 | 53 | 176 | 4.3 | 0.0 | 0.09 | 0.27 | 0.00 | 88 | 1007.4 |
| 20260507094054 | 53 | 159 | 7.0 | 0.0 | 0.10 | 0.27 | 0.00 | 89 | 1007.4 |
| 20260507093553 | 53 | 206 | 7.8 | 0.0 | 0.10 | 0.27 | 0.00 | 89 | 1007.4 |
| 20260507092049 | 53 | 217 | 12.2 | 0.0 | 0.10 | 0.27 | 0.00 | 90 | 1006.3 |
| 20260507091548 | 52 | 207 | 7.8 | 0.0 | 0.10 | 0.27 | 0.00 | 91 | 1006.3 |
| 20260507091047 | 52 | 57 | 7.8 | 0.0 | 0.08 | 0.25 | 0.00 | 91 | 1006.3 |
| 20260507090543 | 52 | 351 | 7.8 | 0.0 | 0.06 | 0.23 | 0.00 | 90 | 1006.3 |
| 20260507090043 | 52 | 166 | 10.4 | 0.0 | 0.05 | 0.22 | 0.00 | 89 | 1006.3 |
| 20260507085542 | 52 | 166 | 5.2 | 0.0 | 0.02 | 0.19 | 0.00 | 89 | 1007.0 |
| 20260507085041 | 52 | 46 | 7.8 | 0.0 | 0.01 | 0.18 | 0.00 | 88 | 1007.0 |
| 20260507084539 | 52 | 239 | 12.2 | 0.0 | 0.01 | 0.18 | 0.00 | 87 | 1007.0 |
| 20260507084038 | 52 | 151 | 7.0 | 0.0 | 0.00 | 0.17 | 0.00 | 87 | 1006.7 |
| 20260507082531 | 52 | 163 | 7.0 | 0.0 | 0.00 | 0.17 | 0.00 | 87 | 1007.4 |
| 20260507082030 | 52 | 181 | 8.7 | 0.0 | 0.00 | 0.17 | 0.00 | 88 | 1007.0 |
| 20260507081528 | 51 | 37 | 2.6 | 0.0 | 0.00 | 0.17 | 0.00 | 87 | 1007.7 |
| 20260507080526 | 52 | 27 | 4.3 | 0.0 | 0.00 | 0.17 | 0.00 | 86 | 1008.0 |
| 20260507080024 | 52 | 354 | 2.6 | 0.0 | 0.00 | 0.17 | 0.00 | 85 | 1008.4 |
| 20260507075020 | 52 | 195 | 2.6 | 0.0 | 0.00 | 0.17 | 0.00 | 83 | 1008.7 |
| 20260507074518 | 52 | 307 | 2.6 | 0.0 | 0.00 | 0.17 | 0.00 | 83 | 1009.1 |
| 20260507073515 | 52 | 85 | 3.5 | 0.0 | 0.00 | 0.17 | 0.00 | 82 | 1009.4 |
| 20260507073014 | 52 | 60 | 3.5 | 0.0 | 0.00 | 0.17 | 0.00 | 82 | 1009.4 |
| 20260507072512 | 52 | 223 | 5.2 | 0.0 | 0.00 | 0.17 | 0.00 | 82 | 1009.4 |
| 20260507072011 | 52 | 164 | 5.2 | 0.0 | 0.00 | 0.17 | 0.00 | 82 | 1009.1 |
| 20260507071509 | 53 | 111 | 4.3 | 0.0 | 0.00 | 0.17 | 0.00 | 82 | 1009.7 |
| 20260507070506 | 53 | 192 | 6.1 | 0.0 | 0.00 | 0.17 | 0.00 | 81 | 1009.4 |
| 20260507070009 | 53 | 275 | 2.6 | 0.0 | 0.00 | 0.17 | 0.00 | 82 | 1009.4 |
| 20260507065503 | 53 | 211 | 7.8 | 0.0 | 0.00 | 0.17 | 0.00 | 82 | 1009.4 |
| 20260507064100 | 53 | 21 | 2.6 | 0.0 | 0.00 | 0.17 | 0.00 | 81 | 1009.4 |
| 20260507063556 | 53 | 214 | 4.3 | 0.0 | 0.00 | 0.17 | 0.00 | 81 | 1009.1 |
| 20260507063056 | 53 | 299 | 2.6 | 0.0 | 0.00 | 0.17 | 0.00 | 81 | 1009.1 |
| 20260507062054 | 53 | 295 | 5.2 | 0.0 | 0.00 | 0.17 | 0.00 | 81 | 1010.4 |
| 20260507061551 | 53 | 16 | 2.6 | 0.0 | 0.00 | 0.17 | 0.00 | 81 | 1010.4 |
| 20260507060551 | 53 | 190 | 1.7 | 0.0 | 0.00 | 0.17 | 0.00 | 82 | 1010.4 |
| 20260507060049 | 53 | 90 | 3.5 | 0.0 | 0.00 | 0.17 | 0.00 | 82 | 1011.1 |
| 20260507055547 | 53 | 171 | 3.5 | 0.0 | 0.00 | 0.17 | 0.00 | 82 | 1011.5 |
| 20260507055046 | 53 | 206 | 4.3 | 0.0 | 0.00 | 0.17 | 0.00 | 82 | 1011.8 |
| 20260507054044 | 53 | 58 | 7.0 | 0.0 | 0.00 | 0.17 | 0.00 | 82 | 1011.8 |
| 20260507053541 | 52 | 6 | 1.7 | 0.0 | 0.00 | 0.17 | 0.00 | 82 | 1011.8 |
| 20260507053040 | 52 | 166 | 5.2 | 0.0 | 0.00 | 0.17 | 0.00 | 82 | 1011.8 |
| 20260507052539 | 52 | 331 | 1.7 | 0.0 | 0.00 | 0.17 | 0.00 | 82 | 1011.8 |
| 20260507052037 | 52 | 342 | 5.2 | 0.0 | 0.00 | 0.17 | 0.00 | 82 | 1012.1 |
| 20260507051535 | 52 | 282 | 0.9 | 0.0 | 0.00 | 0.17 | 0.00 | 82 | 1012.1 |
| 20260507051031 | 52 | 85 | 4.3 | 0.0 | 0.00 | 0.17 | 0.00 | 82 | 1012.1 |
| 20260507050027 | 52 | 129 | 3.5 | 0.0 | 0.00 | 0.17 | 0.00 | 82 | 1012.1 |
| 20260507045526 | 52 | 285 | 0.9 | 0.0 | 0.00 | 0.17 | 0.00 | 82 | 1012.1 |
| 20260507045025 | 52 | 105 | 5.2 | 0.0 | 0.00 | 0.17 | 0.00 | 82 | 1012.5 |
| 20260507044522 | 52 | 221 | 2.6 | 0.0 | 0.00 | 0.17 | 0.00 | 82 | 1012.5 |
| 20260507044020 | 53 | 59 | 3.5 | 0.0 | 0.00 | 0.17 | 0.00 | 82 | 1012.5 |
| 20260507043017 | 53 | 15 | 0.9 | 0.0 | 0.00 | 0.17 | 0.00 | 81 | 1012.8 |
| 20260507042515 | 53 | 240 | 2.6 | 0.0 | 0.00 | 0.17 | 0.00 | 82 | 1012.8 |
| 20260507042014 | 53 | 346 | 4.3 | 0.0 | 0.00 | 0.17 | 0.00 | 81 | 1012.8 |
| 20260507041011 | 53 | 26 | 1.7 | 0.0 | 0.00 | 0.17 | 0.00 | 81 | 1013.2 |
| 20260507040510 | 53 | 9 | 4.3 | 0.0 | 0.00 | 0.17 | 0.00 | 82 | 1013.2 |
| 20260507040008 | 52 | 339 | 2.6 | 0.0 | 0.00 | 0.17 | 0.00 | 82 | 1013.5 |
| 20260507035507 | 53 | 40 | 1.7 | 0.0 | 0.00 | 0.17 | 0.00 | 81 | 1013.8 |
| 20260507035005 | 53 | 23 | 1.7 | 0.0 | 0.00 | 0.17 | 0.00 | 81 | 1013.8 |
| 20260507034504 | 53 | 58 | 1.7 | 0.0 | 0.00 | 0.17 | 0.00 | 80 | 1014.2 |
| 20260507034001 | 53 | 155 | 3.5 | 0.0 | 0.00 | 0.17 | 0.00 | 81 | 1014.2 |
| 20260507033100 | 53 | 335 | 2.6 | 0.0 | 0.00 | 0.17 | 0.00 | 80 | 1014.2 |
| 20260507032558 | 53 | 55 | 2.6 | 0.0 | 0.00 | 0.17 | 0.00 | 80 | 1014.2 |
| 20260507032055 | 53 | 346 | 1.7 | 0.0 | 0.00 | 0.17 | 0.00 | 79 | 1014.2 |
| 20260507031054 | 54 | 212 | 5.2 | 0.0 | 0.00 | 0.17 | 0.00 | 79 | 1014.5 |
| 20260507030552 | 54 | 134 | 6.1 | 0.0 | 0.00 | 0.17 | 0.00 | 78 | 1014.5 |
| 20260507030050 | 54 | 200 | 2.6 | 0.0 | 0.00 | 0.17 | 0.00 | 78 | 1014.5 |
| 20260507025550 | 54 | 203 | 6.1 | 0.0 | 0.00 | 0.17 | 0.00 | 78 | 1014.9 |
| 20260507025047 | 54 | 336 | 3.5 | 0.0 | 0.00 | 0.17 | 0.00 | 78 | 1014.9 |
| 20260507024045 | 54 | 328 | 3.5 | 0.0 | 0.00 | 0.17 | 0.00 | 77 | 1014.9 |
| 20260507023042 | 54 | 146 | 7.8 | 0.0 | 0.00 | 0.17 | 0.00 | 77 | 1015.2 |
| 20260507022539 | 54 | 172 | 5.2 | 0.0 | 0.00 | 0.17 | 0.00 | 77 | 1014.9 |
| 20260507022037 | 54 | 310 | 2.6 | 0.0 | 0.00 | 0.17 | 0.00 | 76 | 1015.2 |
| 20260507021532 | 54 | 268 | 8.7 | 0.0 | 0.00 | 0.17 | 0.00 | 76 | 1015.2 |
| 20260507020027 | 55 | 187 | 7.8 | 0.0 | 0.00 | 0.17 | 0.00 | 76 | 1015.5 |
| 20260507015525 | 55 | 150 | 2.6 | 0.0 | 0.00 | 0.17 | 0.00 | 76 | 1015.5 |
| 20260507015023 | 55 | 85 | 3.5 | 0.0 | 0.00 | 0.17 | 0.00 | 76 | 1015.5 |
| 20260507014522 | 55 | 333 | 5.2 | 0.0 | 0.00 | 0.17 | 0.00 | 75 | 1015.5 |
| 20260507014020 | 55 | 209 | 4.3 | 0.0 | 0.00 | 0.17 | 0.00 | 76 | 1015.5 |
| 20260507013519 | 55 | 190 | 5.2 | 0.0 | 0.00 | 0.17 | 0.00 | 76 | 1015.5 |
| 20260507013017 | 55 | 259 | 6.1 | 0.0 | 0.00 | 0.17 | 0.00 | 76 | 1015.5 |
| 20260507012515 | 55 | 136 | 5.2 | 0.0 | 0.00 | 0.17 | 0.00 | 76 | 1015.5 |
| 20260507011510 | 55 | 181 | 6.1 | 0.0 | 0.00 | 0.17 | 0.00 | 76 | 1015.9 |
| 20260507010506 | 55 | 188 | 7.0 | 0.0 | 0.00 | 0.17 | 0.00 | 76 | 1015.9 |
| 20260507005503 | 55 | 50 | 6.1 | 0.0 | 0.00 | 0.17 | 0.00 | 76 | 1015.9 |
| 20260507004559 | 56 | 173 | 6.1 | 0.0 | 0.00 | 0.17 | 0.00 | 76 | 1015.9 |
| 20260507004057 | 56 | 210 | 5.2 | 0.0 | 0.00 | 0.17 | 0.00 | 76 | 1015.5 |
| 20260507003054 | 56 | 237 | 8.7 | 0.0 | 0.00 | 0.17 | 0.00 | 76 | 1015.5 |
| 20260507002550 | 56 | 188 | 7.8 | 0.0 | 0.00 | 0.17 | 0.00 | 76 | 1015.5 |
| 20260507002049 | 56 | 179 | 7.8 | 0.0 | 0.00 | 0.17 | 0.00 | 76 | 1015.5 |
| 20260507001547 | 57 | 181 | 6.1 | 0.0 | 0.00 | 0.17 | 0.00 | 76 | 1015.5 |
| 20260507000544 | 57 | 185 | 7.0 | 0.0 | 0.06 | 0.17 | 0.00 | 76 | 1015.2 |
| 20260507000041 | 57 | 199 | 14.8 | 0.0 | 0.06 | 0.17 | 0.00 | 76 | 1015.5 |
| 20260506235540 | 57 | 229 | 6.1 | 0.0 | 0.06 | 0.17 | 0.00 | 75 | 1015.5 |
| 20260506234535 | 58 | 241 | 6.1 | 0.0 | 0.09 | 0.17 | 0.00 | 75 | 1015.2 |
| 20260506234033 | 58 | 191 | 10.4 | 0.0 | 0.09 | 0.17 | 0.00 | 75 | 1015.2 |
| 20260506233531 | 58 | 294 | 4.3 | 0.0 | 0.09 | 0.17 | 0.00 | 75 | 1015.5 |
| 20260506233029 | 58 | 213 | 6.1 | 0.0 | 0.09 | 0.17 | 0.00 | 75 | 1015.2 |
| 20260506232023 | 59 | 269 | 7.0 | 0.0 | 0.09 | 0.17 | 0.00 | 74 | 1015.5 |
| 20260506231521 | 59 | 254 | 10.4 | 0.0 | 0.09 | 0.17 | 0.00 | 74 | 1015.5 |
| 20260506231020 | 59 | 199 | 7.0 | 0.0 | 0.03 | 0.11 | 0.00 | 74 | 1015.5 |
| 20260506230518 | 59 | 217 | 7.8 | 0.0 | 0.03 | 0.11 | 0.00 | 74 | 1015.5 |
| 20260506230014 | 59 | 157 | 16.5 | 0.0 | 0.03 | 0.11 | 0.00 | 74 | 1015.5 |
| 20260506225512 | 60 | 226 | 4.3 | 0.0 | 0.03 | 0.11 | 0.00 | 74 | 1015.5 |
| 20260506225010 | 60 | 147 | 7.8 | 0.0 | 0.00 | 0.08 | 0.00 | 74 | 1015.2 |
| 20260506224507 | 60 | 213 | 9.6 | 0.0 | 0.00 | 0.08 | 0.00 | 74 | 1015.2 |
| 20260506224003 | 61 | 235 | 8.7 | 0.0 | 0.02 | 0.08 | 0.00 | 74 | 1015.5 |
| 20260506223501 | 61 | 156 | 7.8 | 0.0 | 0.02 | 0.08 | 0.00 | 73 | 1015.2 |
| 20260506222558 | 61 | 123 | 7.8 | 0.0 | 0.02 | 0.08 | 0.00 | 73 | 1015.2 |
| 20260506222055 | 61 | 184 | 2.6 | 0.0 | 0.03 | 0.08 | 0.00 | 73 | 1015.2 |
| 20260506221051 | 62 | 200 | 10.4 | 0.0 | 0.07 | 0.08 | 0.00 | 72 | 1015.2 |
| 20260506220550 | 62 | 194 | 7.0 | 0.0 | 0.07 | 0.08 | 0.00 | 72 | 1015.2 |
| 20260506215547 | 62 | 186 | 10.4 | 0.0 | 0.07 | 0.08 | 0.00 | 71 | 1015.2 |
| 20260506215046 | 63 | 250 | 8.7 | 0.0 | 0.08 | 0.08 | 0.00 | 71 | 1014.9 |
| 20260506214543 | 63 | 227 | 7.8 | 0.0 | 0.08 | 0.08 | 0.00 | 70 | 1014.9 |
| 20260506214042 | 63 | 187 | 5.2 | 0.0 | 0.06 | 0.06 | 0.00 | 70 | 1014.9 |
| 20260506213540 | 63 | 74 | 7.0 | 0.0 | 0.06 | 0.06 | 0.00 | 70 | 1015.2 |
| 20260506213038 | 63 | 264 | 6.1 | 0.0 | 0.06 | 0.06 | 0.00 | 70 | 1014.9 |
| 20260506212537 | 63 | 137 | 11.3 | 0.0 | 0.06 | 0.06 | 0.00 | 69 | 1014.9 |
| 20260506212031 | 64 | 188 | 11.3 | 0.0 | 0.05 | 0.05 | 0.00 | 68 | 1015.2 |
| 20260506211528 | 64 | 189 | 13.9 | 0.0 | 0.01 | 0.01 | 0.00 | 68 | 1014.9 |
| 20260506211027 | 64 | 278 | 7.0 | 0.0 | 0.01 | 0.01 | 0.00 | 68 | 1014.9 |
| 20260506210524 | 64 | 119 | 12.2 | 0.0 | 0.01 | 0.01 | 0.00 | 67 | 1014.9 |
| 20260506210022 | 64 | 224 | 7.8 | 0.0 | 0.01 | 0.01 | 0.00 | 67 | 1014.9 |
| 20260506205520 | 64 | 239 | 11.3 | 0.0 | 0.01 | 0.01 | 0.00 | 67 | 1014.5 |
| 20260506205018 | 64 | 209 | 10.4 | 0.0 | 0.57 | 2.29 | 0.00 | 66 | 1014.9 |
| 20260506204516 | 64 | 176 | 11.3 | 0.0 | 0.70 | 2.29 | 0.00 | 66 | 1014.5 |
| 20260506204013 | 64 | 188 | 8.7 | 0.0 | 0.62 | 2.21 | 0.00 | 66 | 1014.5 |
| 20260506203512 | 65 | 220 | 13.9 | 0.0 | 0.62 | 2.27 | 0.00 | 65 | 1014.5 |
| 20260506202509 | 65 | 238 | 10.4 | 0.0 | 0.65 | 2.23 | 0.00 | 65 | 1014.5 |
| 20260506202007 | 65 | 224 | 12.2 | 0.0 | 0.67 | 2.23 | 0.00 | 65 | 1014.5 |